Time;durP1;ratioP1;P1;durP2;ratioP2;P2;SDS_P1;SDS_P2;PMS_P1;PMS_P2;Temp;Humidity;BMP_temperature;BMP_pressure;BME280_temperature;BME280_humidity;BME280_pressure;Samples;Min_cycle;Max_cycle;Signal;HPM_P1;HPM_P2
2021/12/16 00:07:33;;;;;;;64.60;43.13;;;20.20;96.40;;;;;;4161889;28;19970;-71
2021/12/16 00:09:55;;;;;;;70.97;43.90;;;20.30;96.20;;;;;;4160759;28;20037;-70
2021/12/16 00:34:45;;;;;;;68.00;43.03;;;20.90;95.40;;;;;;4179569;28;20044;-71
2021/12/16 00:36:52;;;;;;;66.25;43.03;;;20.90;95.40;;;;;;4145810;28;20046;-71
2021/12/16 00:38:56;;;;;;;66.90;42.28;;;21.00;95.20;;;;;;4155029;28;20069;-71
2021/12/16 00:41:01;;;;;;;76.90;43.00;;;21.00;95.40;;;;;;4179965;28;20053;-71
2021/12/16 00:43:18;;;;;;;73.88;43.45;;;21.00;95.20;;;;;;4180190;28;20045;-71
2021/12/16 00:45:35;;;;;;;78.72;48.22;;;21.10;95.40;;;;;;4176705;28;20079;-70
2021/12/16 00:50:03;;;;;;;79.67;48.60;;;21.20;95.70;;;;;;4170453;28;20053;-70
2021/12/16 00:54:29;;;;;;;76.97;46.20;;;21.40;95.10;;;;;;4173157;28;20049;-71
2021/12/16 00:56:34;;;;;;;81.35;48.97;;;21.50;94.80;;;;;;4178462;28;20037;-71
2021/12/16 00:58:46;;;;;;;85.75;44.42;;;21.60;94.80;;;;;;4161751;28;20132;-70
2021/12/16 01:01:00;;;;;;;70.63;42.97;;;21.70;94.60;;;;;;4157171;28;20528;-70
2021/12/16 01:03:20;;;;;;;72.63;41.80;;;21.80;94.50;;;;;;4174174;28;20373;-70
2021/12/16 01:33:47;;;;;;;53.63;31.15;;;22.60;91.10;;;;;;4159448;28;20077;-71
2021/12/16 01:49:26;;;;;;;44.08;29.10;;;23.00;90.10;;;;;;4158593;28;20115;-68
2021/12/16 01:51:39;;;;;;;40.20;28.75;;;23.00;90.30;;;;;;4157826;28;20049;-68
2021/12/16 01:56:03;;;;;;;50.72;31.27;;;23.10;90.20;;;;;;4176032;28;20543;-69
2021/12/16 01:58:17;;;;;;;59.35;30.38;;;23.10;89.90;;;;;;4159513;28;20519;-69
2021/12/16 02:00:31;;;;;;;52.10;30.88;;;23.10;90.00;;;;;;4158097;28;20435;-69
2021/12/16 02:05:07;;;;;;;49.03;31.58;;;23.20;89.80;;;;;;4176078;28;20057;-69
2021/12/16 02:07:23;;;;;;;45.45;32.35;;;23.30;89.60;;;;;;4176230;28;20045;-69
2021/12/16 02:09:43;;;;;;;51.90;31.63;;;23.30;89.40;;;;;;4158882;28;20045;-69
2021/12/16 02:11:57;;;;;;;52.28;31.55;;;23.50;89.20;;;;;;4157784;28;20041;-69
2021/12/16 02:36:48;;;;;;;49.25;34.35;;;24.10;88.00;;;;;;4157740;28;20042;-69
2021/12/16 02:39:09;;;;;;;54.00;34.42;;;24.20;88.20;;;;;;4175991;28;20124;-69
2021/12/16 02:41:14;;;;;;;61.25;33.42;;;24.20;88.00;;;;;;4159701;28;20168;-69
2021/12/16 02:43:38;;;;;;;50.08;33.53;;;24.30;87.60;;;;;;4158381;28;20411;-69
2021/12/16 02:50:18;;;;;;;52.25;33.05;;;24.50;86.40;;;;;;4176110;28;20135;-69
2021/12/16 02:52:24;;;;;;;47.70;34.47;;;24.60;84.70;;;;;;4158015;28;20073;-69
2021/12/16 02:54:29;;;;;;;46.95;33.72;;;24.60;84.70;;;;;;4158806;28;20045;-69
2021/12/16 02:56:33;;;;;;;45.83;32.80;;;24.60;84.70;;;;;;4178177;28;20057;-69
2021/12/16 02:58:39;;;;;;;45.35;30.60;;;24.90;83.80;;;;;;4193648;28;20060;-69
2021/12/16 03:00:46;;;;;;;49.20;30.50;;;24.90;82.90;;;;;;4159655;28;20072;-69
2021/12/16 03:02:52;;;;;;;47.03;30.83;;;24.90;83.70;;;;;;4162962;28;20140;-69
2021/12/16 03:04:57;;;;;;;53.05;29.70;;;25.10;82.80;;;;;;4160020;28;20498;-68
2021/12/16 03:07:03;;;;;;;44.95;29.20;;;25.10;82.70;;;;;;4178014;28;20037;-68
2021/12/16 03:09:08;;;;;;;40.08;28.45;;;25.00;83.40;;;;;;4147407;28;20440;-68
2021/12/16 03:11:43;;;;;;;39.22;29.42;;;25.20;82.60;;;;;;4178952;28;20044;-69
2021/12/16 03:14:06;;;;;;;46.78;30.20;;;25.30;82.30;;;;;;4160816;28;20503;-69
2021/12/16 03:18:34;;;;;;;52.15;31.42;;;25.40;81.50;;;;;;4177511;28;20072;-69
2021/12/16 03:20:44;;;;;;;47.67;30.65;;;25.50;82.20;;;;;;4178993;28;20462;-68
2021/12/16 03:23:17;;;;;;;46.97;29.83;;;25.50;82.40;;;;;;4177607;28;20102;-69
2021/12/16 03:36:47;;;;;;;39.20;27.80;;;25.60;79.80;;;;;;4177960;28;20049;-69
2021/12/16 03:39:00;;;;;;;44.65;29.25;;;26.00;80.20;;;;;;4178479;28;20057;-69
2021/12/16 03:41:05;;;;;;;42.42;27.20;;;26.00;79.40;;;;;;4178492;28;20045;-69
2021/12/16 03:43:12;;;;;;;34.65;24.40;;;26.00;79.70;;;;;;4173968;28;20443;-70
2021/12/16 03:47:55;;;;;;;37.17;23.27;;;26.00;78.40;;;;;;4160831;28;20453;-68
2021/12/16 03:50:00;;;;;;;37.92;25.73;;;25.90;78.00;;;;;;4160038;28;20610;-69
2021/12/16 03:52:07;;;;;;;33.58;24.30;;;26.10;78.00;;;;;;4160763;28;20049;-69
2021/12/16 03:54:23;;;;;;;34.20;23.42;;;26.10;77.90;;;;;;4160669;28;20123;-68
2021/12/16 03:56:32;;;;;;;37.60;26.27;;;26.00;77.20;;;;;;4162214;28;20041;-68
2021/12/16 03:58:49;;;;;;;34.58;24.15;;;26.30;77.20;;;;;;4162743;28;20123;-71
2021/12/16 04:00:57;;;;;;;34.05;24.67;;;26.50;76.00;;;;;;4158932;28;20042;-69
2021/12/16 04:03:02;;;;;;;42.58;20.50;;;26.50;76.10;;;;;;4163232;28;20057;-70
2021/12/16 04:05:13;;;;;;;29.27;19.45;;;26.60;74.70;;;;;;4161444;28;20061;-69
2021/12/16 04:07:22;;;;;;;27.45;19.50;;;26.60;75.20;;;;;;4146701;28;20501;-69
2021/12/16 04:09:38;;;;;;;26.27;19.17;;;26.60;74.80;;;;;;4148830;28;20041;-69
2021/12/16 04:12:03;;;;;;;31.48;20.38;;;26.60;75.00;;;;;;4162657;28;20061;-69
2021/12/16 04:14:10;;;;;;;28.70;20.58;;;26.70;74.80;;;;;;4148295;28;20054;-69
2021/12/16 04:16:18;;;;;;;35.85;22.42;;;26.70;74.70;;;;;;4153137;28;20136;-69
2021/12/16 04:18:23;;;;;;;27.63;19.30;;;26.90;74.90;;;;;;4162308;28;20057;-68
2021/12/16 04:20:28;;;;;;;31.38;22.60;;;27.10;72.80;;;;;;4162697;28;20073;-67
2021/12/16 04:22:38;;;;;;;30.80;22.15;;;27.10;73.30;;;;;;4163129;28;20103;-68
2021/12/16 04:24:43;;;;;;;34.38;22.55;;;27.10;72.70;;;;;;4162470;28;20091;-69
2021/12/16 04:26:48;;;;;;;31.23;23.38;;;27.10;73.80;;;;;;4162144;28;20081;-69
2021/12/16 04:28:52;;;;;;;34.83;23.02;;;27.10;72.70;;;;;;4195557;28;20080;-68
2021/12/16 04:30:58;;;;;;;32.60;21.88;;;27.00;73.30;;;;;;4162056;28;20121;-68
2021/12/16 04:33:02;;;;;;;30.77;20.80;;;27.00;72.70;;;;;;4161866;28;20507;-68
2021/12/16 04:35:09;;;;;;;33.05;19.42;;;27.00;71.90;;;;;;4159822;28;20045;-68
2021/12/16 04:37:14;;;;;;;31.33;20.77;;;26.90;72.50;;;;;;4161831;28;20050;-68
2021/12/16 04:39:23;;;;;;;36.90;23.95;;;27.00;72.60;;;;;;4146245;28;20067;-69
2021/12/16 04:41:28;;;;;;;38.85;20.83;;;27.10;72.70;;;;;;4160758;28;20140;-68
2021/12/16 04:43:39;;;;;;;30.45;18.48;;;27.10;71.70;;;;;;4186582;28;20080;-69
2021/12/16 04:45:44;;;;;;;31.52;20.30;;;27.20;72.20;;;;;;4161942;28;20037;-69
2021/12/16 04:47:49;;;;;;;29.63;19.65;;;27.20;71.10;;;;;;4182989;28;20055;-70
2021/12/16 04:49:53;;;;;;;27.33;18.88;;;27.30;71.10;;;;;;4145862;28;20060;-69
2021/12/16 04:51:59;;;;;;;31.92;18.63;;;27.20;71.20;;;;;;4161942;28;20148;-67
2021/12/16 04:54:04;;;;;;;25.25;17.63;;;27.30;71.30;;;;;;4161808;28;20041;-68
2021/12/16 04:56:09;;;;;;;27.45;17.60;;;27.30;71.20;;;;;;4161799;28;20127;-68
2021/12/16 04:58:26;;;;;;;26.40;18.50;;;27.40;71.40;;;;;;4181914;28;20512;-68
2021/12/16 05:00:31;;;;;;;28.13;19.15;;;27.60;70.50;;;;;;4178146;28;20047;-68
2021/12/16 05:02:47;;;;;;;28.48;19.02;;;27.60;70.90;;;;;;4176509;28;20144;-68
2021/12/16 05:05:12;;;;;;;27.63;19.00;;;27.80;72.10;;;;;;4179965;28;20073;-69
2021/12/16 05:07:22;;;;;;;27.13;17.65;;;27.70;71.70;;;;;;4191849;28;20041;-69
2021/12/16 05:12:16;;;;;;;26.77;18.92;;;27.90;70.10;;;;;;4159446;28;20061;-68
2021/12/16 05:14:21;;;;;;;31.10;19.95;;;27.90;69.80;;;;;;4176978;28;20052;-68
2021/12/16 05:16:25;;;;;;;30.70;19.08;;;27.90;69.70;;;;;;4159677;28;20052;-68
2021/12/16 05:18:34;;;;;;;25.75;19.00;;;27.90;70.50;;;;;;4153174;28;20088;-69
2021/12/16 05:20:42;;;;;;;24.80;18.38;;;28.30;69.90;;;;;;4176532;28;20053;-69
2021/12/16 05:25:08;;;;;;;27.20;17.85;;;28.10;69.50;;;;;;4175479;28;20526;-69
2021/12/16 05:27:13;;;;;;;29.73;19.08;;;28.00;70.20;;;;;;4155242;28;20052;-69
2021/12/16 05:29:18;;;;;;;27.73;19.55;;;28.20;70.40;;;;;;4176223;28;20507;-70
2021/12/16 05:31:26;;;;;;;27.77;19.02;;;28.20;69.60;;;;;;4156283;28;20120;-69
2021/12/16 05:33:31;;;;;;;23.58;18.73;;;28.20;70.50;;;;;;4158768;28;20076;-69
2021/12/16 05:35:36;;;;;;;27.02;18.98;;;28.20;70.30;;;;;;4158829;28;20660;-69
2021/12/16 05:37:43;;;;;;;23.35;18.15;;;28.10;70.80;;;;;;4158321;28;20051;-69
2021/12/16 05:39:48;;;;;;;23.35;16.85;;;28.10;70.60;;;;;;4155852;28;20109;-69
2021/12/16 05:42:12;;;;;;;26.02;15.57;;;28.00;70.50;;;;;;4174839;28;20540;-69
2021/12/16 05:44:17;;;;;;;19.33;14.55;;;28.10;69.50;;;;;;4175790;28;20359;-68
2021/12/16 05:46:23;;;;;;;21.65;14.75;;;28.20;69.20;;;;;;4160859;28;20029;-68
2021/12/16 05:48:28;;;;;;;23.67;16.27;;;28.50;67.50;;;;;;4161194;28;20488;-68
2021/12/16 05:50:34;;;;;;;23.25;14.95;;;28.60;68.50;;;;;;4178872;28;20087;-68
2021/12/16 05:52:39;;;;;;;18.48;14.32;;;28.70;68.00;;;;;;4151260;28;20052;-68
2021/12/16 05:54:44;;;;;;;22.20;14.55;;;28.70;67.20;;;;;;4178672;28;20051;-68
2021/12/16 05:56:56;;;;;;;18.48;13.85;;;28.50;68.40;;;;;;4161314;28;20483;-68
2021/12/16 05:59:01;;;;;;;20.08;13.85;;;28.40;68.40;;;;;;4160822;28;20111;-68
2021/12/16 06:01:16;;;;;;;19.00;13.50;;;28.40;68.40;;;;;;4145141;28;20037;-68
2021/12/16 06:03:21;;;;;;;16.13;13.23;;;28.40;68.40;;;;;;4160759;28;20120;-69
2021/12/16 06:05:27;;;;;;;18.08;12.93;;;28.70;66.70;;;;;;4161003;28;20128;-68
2021/12/16 06:07:31;;;;;;;18.98;12.30;;;28.70;66.20;;;;;;4178645;28;20288;-68
2021/12/16 06:09:36;;;;;;;17.92;12.48;;;28.60;66.80;;;;;;4161042;28;20053;-69
2021/12/16 06:11:42;;;;;;;15.55;12.85;;;28.60;67.20;;;;;;4178532;28;20076;-69
2021/12/16 06:14:17;;;;;;;16.30;12.82;;;28.50;67.00;;;;;;4178658;28;20053;-69
2021/12/16 06:27:37;;;;;;;21.00;12.45;;;28.80;65.80;;;;;;4178543;28;20049;-66
2021/12/16 06:29:49;;;;;;;16.52;12.57;;;28.90;66.00;;;;;;4178225;28;20053;-68
2021/12/16 06:31:54;;;;;;;18.23;12.15;;;28.80;65.60;;;;;;4181407;28;20053;-68
2021/12/16 06:33:59;;;;;;;22.80;13.23;;;28.70;65.80;;;;;;4164464;28;20103;-69
2021/12/16 06:36:03;;;;;;;18.50;12.45;;;28.90;65.80;;;;;;4181439;28;20060;-70
2021/12/16 06:38:08;;;;;;;18.80;12.85;;;28.80;66.20;;;;;;4164448;28;20126;-69
2021/12/16 06:40:32;;;;;;;20.02;13.40;;;28.90;65.00;;;;;;4181436;28;20095;-70
2021/12/16 06:42:58;;;;;;;22.35;13.70;;;28.90;66.00;;;;;;4181744;28;20041;-69
2021/12/16 06:45:10;;;;;;;21.00;12.90;;;28.80;66.90;;;;;;4163884;28;20530;-69
2021/12/16 06:47:20;;;;;;;19.08;13.10;;;28.80;66.90;;;;;;4149096;28;20038;-69
2021/12/16 06:49:26;;;;;;;19.25;13.30;;;29.00;66.50;;;;;;4176667;28;20171;-70
2021/12/16 06:51:48;;;;;;;20.85;13.77;;;29.30;65.50;;;;;;4165154;28;20454;-71
2021/12/16 06:54:03;;;;;;;24.00;13.68;;;29.20;64.90;;;;;;4165164;28;20096;-69
2021/12/16 06:56:15;;;;;;;26.38;14.82;;;29.10;65.50;;;;;;4179324;28;20442;-70
2021/12/16 07:00:37;;;;;;;14.95;12.00;;;29.00;66.80;;;;;;4181381;28;20042;-70
2021/12/16 07:02:55;;;;;;;19.08;12.15;;;29.00;65.80;;;;;;4181567;28;20139;-70
2021/12/16 07:05:00;;;;;;;17.23;13.15;;;29.10;64.80;;;;;;4165615;28;20123;-69
2021/12/16 07:07:05;;;;;;;19.05;13.02;;;29.10;65.10;;;;;;4181425;28;20119;-69
2021/12/16 07:09:15;;;;;;;23.05;12.70;;;29.10;64.70;;;;;;4181571;28;20047;-68
2021/12/16 07:11:20;;;;;;;18.40;12.95;;;29.10;65.10;;;;;;4181367;28;20119;-69
2021/12/16 07:13:40;;;;;;;17.88;11.70;;;29.20;65.10;;;;;;4181664;28;20048;-68
2021/12/16 07:15:48;;;;;;;16.05;12.52;;;29.20;65.40;;;;;;4181134;28;20052;-69
2021/12/16 07:17:52;;;;;;;19.38;12.38;;;29.30;65.40;;;;;;4162511;28;20056;-63
2021/12/16 07:19:57;;;;;;;18.60;12.35;;;29.40;65.60;;;;;;4181575;28;20500;-64
2021/12/16 07:22:02;;;;;;;24.00;11.88;;;29.30;66.00;;;;;;4163209;28;20434;-67
2021/12/16 07:24:07;;;;;;;19.02;12.43;;;29.50;66.00;;;;;;4181070;28;20079;-68
2021/12/16 07:26:12;;;;;;;17.35;11.68;;;29.40;65.40;;;;;;4163394;28;20120;-69
2021/12/16 07:28:17;;;;;;;16.00;11.80;;;29.40;65.10;;;;;;4180889;28;20048;-69
2021/12/16 07:30:23;;;;;;;18.00;12.35;;;29.50;64.80;;;;;;4180712;28;20037;-69
2021/12/16 07:32:27;;;;;;;15.45;11.75;;;29.30;65.50;;;;;;4180232;28;20045;-68
2021/12/16 07:34:31;;;;;;;18.55;12.30;;;29.20;65.30;;;;;;4180394;28;20086;-68
2021/12/16 07:36:37;;;;;;;17.13;11.20;;;29.30;65.20;;;;;;4180334;28;20114;-68
2021/12/16 07:38:41;;;;;;;21.10;12.30;;;29.20;64.70;;;;;;4159876;28;20057;-68
2021/12/16 07:40:47;;;;;;;16.48;11.40;;;29.20;65.50;;;;;;4174404;28;20045;-68
2021/12/16 07:45:09;;;;;;;19.25;12.32;;;29.60;64.40;;;;;;4180635;28;20127;-67
2021/12/16 07:47:13;;;;;;;18.48;11.98;;;29.50;65.00;;;;;;4180628;28;20045;-68
2021/12/16 07:49:22;;;;;;;22.13;15.45;;;29.40;64.80;;;;;;4171996;28;20099;-68
2021/12/16 07:51:26;;;;;;;33.55;23.05;;;29.30;65.30;;;;;;4180783;28;20124;-69
2021/12/16 07:53:31;;;;;;;25.52;15.38;;;29.50;66.00;;;;;;4177123;28;20048;-68
2021/12/16 07:55:36;;;;;;;18.70;13.18;;;29.50;65.30;;;;;;4180871;28;20040;-68
2021/12/16 07:57:40;;;;;;;18.50;11.82;;;29.60;65.40;;;;;;4180597;28;20710;-67
2021/12/16 07:59:45;;;;;;;18.27;11.65;;;29.50;64.80;;;;;;4180315;28;20048;-68
2021/12/16 08:01:49;;;;;;;18.65;11.93;;;29.40;65.30;;;;;;4180328;28;20048;-69
2021/12/16 08:03:54;;;;;;;17.63;11.25;;;29.30;65.40;;;;;;4180363;28;20049;-68
2021/12/16 08:06:00;;;;;;;17.67;11.68;;;29.60;65.00;;;;;;4180464;28;20044;-68
2021/12/16 08:08:04;;;;;;;15.32;11.80;;;29.50;65.50;;;;;;4179436;28;20048;-69
2021/12/16 08:10:13;;;;;;;16.70;11.88;;;29.70;64.80;;;;;;4180285;28;20439;-68
2021/12/16 08:12:18;;;;;;;16.17;10.38;;;29.70;65.00;;;;;;4179818;28;20041;-69
2021/12/16 08:14:24;;;;;;;15.30;10.40;;;29.70;64.70;;;;;;4180246;28;20049;-68
2021/12/16 08:16:28;;;;;;;18.42;10.35;;;29.60;63.80;;;;;;4166390;28;20057;-68
2021/12/16 08:18:32;;;;;;;16.67;10.25;;;29.60;64.40;;;;;;4180148;28;20071;-69
2021/12/16 08:20:37;;;;;;;17.52;11.20;;;29.50;64.50;;;;;;4180063;28;20040;-69
2021/12/16 08:22:43;;;;;;;19.05;10.70;;;29.60;65.00;;;;;;4180381;28;20400;-68
2021/12/16 08:24:47;;;;;;;12.68;10.32;;;29.60;64.60;;;;;;4180367;28;20107;-68
2021/12/16 08:26:53;;;;;;;21.20;10.40;;;29.50;64.80;;;;;;4178622;28;20049;-69
2021/12/16 08:28:58;;;;;;;15.40;10.48;;;29.70;65.20;;;;;;4178843;28;20041;-68
2021/12/16 08:31:05;;;;;;;17.60;10.75;;;29.70;64.10;;;;;;4162115;28;20046;-69
2021/12/16 08:33:11;;;;;;;14.35;10.10;;;29.50;64.40;;;;;;4180212;28;20491;-70
2021/12/16 08:35:16;;;;;;;16.02;10.60;;;29.60;64.50;;;;;;4160883;28;20051;-69
2021/12/16 08:37:24;;;;;;;14.82;10.52;;;29.50;64.70;;;;;;4180069;28;20045;-70
2021/12/16 08:39:28;;;;;;;20.17;10.65;;;29.60;64.90;;;;;;4179707;28;20041;-68
2021/12/16 08:41:39;;;;;;;17.48;11.23;;;29.50;65.20;;;;;;4179776;28;20037;-69
2021/12/16 08:43:44;;;;;;;13.82;10.20;;;29.40;64.70;;;;;;4179964;28;20067;-69
2021/12/16 08:45:48;;;;;;;16.77;10.77;;;29.40;64.80;;;;;;4179692;28;20110;-69
2021/12/16 08:47:53;;;;;;;14.02;10.20;;;29.40;64.60;;;;;;4161614;28;20551;-69
2021/12/16 08:49:58;;;;;;;14.70;10.63;;;29.40;64.70;;;;;;4172676;28;20161;-69
2021/12/16 08:52:06;;;;;;;14.70;10.80;;;29.40;64.90;;;;;;4179804;28;20045;-68
2021/12/16 08:54:10;;;;;;;21.15;10.35;;;29.50;64.50;;;;;;4179559;28;20055;-68
2021/12/16 08:56:15;;;;;;;17.02;9.88;;;29.50;64.20;;;;;;4179738;28;20521;-68
2021/12/16 08:58:19;;;;;;;15.20;9.85;;;29.50;64.70;;;;;;4179687;28;20445;-68
2021/12/16 09:00:29;;;;;;;13.65;9.23;;;29.50;63.80;;;;;;4171712;28;20130;-68
2021/12/16 09:02:33;;;;;;;19.20;10.48;;;29.50;64.40;;;;;;4177992;28;20177;-68
2021/12/16 09:04:39;;;;;;;19.48;10.07;;;29.40;64.80;;;;;;4179820;28;20493;-68
2021/12/16 09:06:43;;;;;;;21.65;16.13;;;29.40;64.60;;;;;;4179521;28;20067;-69
2021/12/16 09:08:48;;;;;;;23.77;13.77;;;29.30;64.60;;;;;;4161286;28;20797;-69
2021/12/16 09:10:53;;;;;;;14.93;11.00;;;29.30;65.40;;;;;;4179378;28;20491;-68
2021/12/16 09:13:03;;;;;;;15.88;10.57;;;29.40;64.50;;;;;;4179351;28;20049;-68
2021/12/16 09:15:08;;;;;;;15.60;10.50;;;29.40;65.00;;;;;;4179110;28;20406;-68
2021/12/16 09:17:15;;;;;;;12.75;11.32;;;29.50;65.10;;;;;;4142099;28;20300;-68
2021/12/16 09:19:19;;;;;;;19.30;9.93;;;29.40;65.30;;;;;;4161087;28;20042;-68
2021/12/16 09:21:26;;;;;;;19.25;10.63;;;29.40;65.30;;;;;;4177993;28;20051;-69
2021/12/16 09:23:31;;;;;;;18.52;10.48;;;29.50;64.60;;;;;;4179099;28;20103;-69
2021/12/16 09:25:35;;;;;;;14.90;9.48;;;29.50;65.00;;;;;;4161538;28;20045;-68
2021/12/16 09:27:40;;;;;;;18.88;11.80;;;29.40;65.40;;;;;;4179235;28;20049;-69
2021/12/16 09:29:45;;;;;;;17.85;12.30;;;29.40;65.00;;;;;;4179244;28;20056;-69
2021/12/16 09:31:49;;;;;;;19.55;11.48;;;29.40;66.00;;;;;;4161375;28;20041;-68
2021/12/16 09:33:54;;;;;;;20.63;12.15;;;29.40;65.60;;;;;;4175096;28;20091;-68
2021/12/16 09:35:59;;;;;;;21.55;12.57;;;29.40;65.90;;;;;;4176498;28;20044;-68
2021/12/16 09:38:04;;;;;;;16.45;11.50;;;29.40;66.10;;;;;;4178685;28;20033;-68
2021/12/16 09:40:11;;;;;;;21.05;11.43;;;29.40;65.20;;;;;;4178625;28;20047;-68
2021/12/16 09:42:15;;;;;;;16.75;12.25;;;29.30;66.10;;;;;;4178764;28;20053;-71
2021/12/16 09:44:21;;;;;;;23.25;14.25;;;29.30;66.80;;;;;;4178923;28;20430;-69
2021/12/16 09:46:26;;;;;;;23.30;15.43;;;29.20;66.70;;;;;;4179132;28;20044;-69
2021/12/16 09:48:32;;;;;;;31.05;15.60;;;29.20;67.10;;;;;;4178669;28;20064;-69
2021/12/16 09:50:36;;;;;;;28.98;15.73;;;29.20;67.30;;;;;;4157676;28;20484;-69
2021/12/16 09:52:41;;;;;;;25.65;16.05;;;29.20;67.70;;;;;;4160557;28;20080;-69
2021/12/16 09:54:45;;;;;;;25.20;14.73;;;29.20;68.90;;;;;;4166145;28;20102;-69
2021/12/16 09:56:50;;;;;;;23.50;14.55;;;29.10;69.10;;;;;;4176096;28;20045;-69
2021/12/16 09:58:55;;;;;;;22.65;13.95;;;29.10;68.90;;;;;;4179027;28;20507;-69
2021/12/16 10:00:59;;;;;;;18.23;12.35;;;29.10;68.70;;;;;;4176174;28;20064;-69
2021/12/16 10:03:05;;;;;;;17.38;12.50;;;29.10;68.40;;;;;;4165578;28;20530;-70
2021/12/16 10:05:10;;;;;;;18.98;11.80;;;29.00;68.50;;;;;;4149559;28;20590;-68
2021/12/16 10:07:18;;;;;;;22.73;12.98;;;29.00;69.00;;;;;;4172563;28;20063;-69
2021/12/16 10:09:22;;;;;;;21.40;13.18;;;28.90;69.10;;;;;;4162740;28;20322;-69
2021/12/16 10:11:27;;;;;;;20.90;13.27;;;28.90;69.10;;;;;;4163265;28;20507;-69
2021/12/16 10:14:05;;;;;;;20.75;12.85;;;28.90;69.00;;;;;;4177062;28;20045;-70
2021/12/16 10:18:20;;;;;;;21.58;13.70;;;28.80;69.60;;;;;;4176155;28;20395;-69
2021/12/16 10:20:28;;;;;;;23.45;13.57;;;28.80;69.40;;;;;;4174039;28;20053;-69
2021/12/16 10:23:02;;;;;;;17.52;13.70;;;28.70;70.40;;;;;;4177022;28;20041;-70
2021/12/16 10:25:30;;;;;;;19.95;13.75;;;28.60;69.80;;;;;;4161130;28;20049;-71
2021/12/16 10:27:34;;;;;;;23.08;13.88;;;28.60;70.10;;;;;;4177486;28;20057;-70
2021/12/16 10:29:52;;;;;;;32.10;15.98;;;28.60;70.50;;;;;;4177519;28;20033;-71
2021/12/16 10:31:56;;;;;;;138.35;22.00;;;28.60;71.50;;;;;;4174672;28;20051;-70
2021/12/16 10:34:03;;;;;;;80.75;20.83;;;28.50;72.50;;;;;;4177258;28;20021;-70
2021/12/16 10:36:24;;;;;;;68.38;19.02;;;28.50;73.50;;;;;;4177274;28;20041;-70
2021/12/16 10:38:28;;;;;;;50.92;17.40;;;28.40;73.80;;;;;;4176364;28;20037;-69
2021/12/16 10:40:56;;;;;;;57.95;18.13;;;28.30;74.40;;;;;;4176636;28;20037;-69
2021/12/16 10:43:04;;;;;;;46.13;17.85;;;28.30;74.40;;;;;;4180143;28;20041;-70
2021/12/16 10:45:10;;;;;;;45.17;18.52;;;28.30;74.50;;;;;;4177269;28;20094;-70
2021/12/16 10:47:14;;;;;;;39.75;18.98;;;28.30;74.70;;;;;;4162289;28;20049;-69
2021/12/16 10:49:21;;;;;;;47.50;21.20;;;28.20;74.90;;;;;;4173466;28;20045;-70
2021/12/16 10:51:55;;;;;;;48.75;24.95;;;28.10;75.10;;;;;;4157046;28;20510;-69
2021/12/16 10:54:22;;;;;;;55.33;26.90;;;28.10;75.70;;;;;;4175255;28;20553;-70
2021/12/16 10:56:50;;;;;;;54.40;30.15;;;28.10;75.80;;;;;;4163155;28;20132;-70
2021/12/16 10:59:26;;;;;;;63.13;31.05;;;28.00;76.50;;;;;;4177832;28;20071;-69
2021/12/16 11:02:02;;;;;;;54.67;28.35;;;28.00;76.80;;;;;;4163798;28;20499;-69
2021/12/16 11:04:12;;;;;;;101.10;30.42;;;27.90;77.40;;;;;;4177987;28;20044;-69
2021/12/16 11:06:27;;;;;;;108.28;34.97;;;27.90;77.70;;;;;;4178295;28;20497;-70
2021/12/16 11:08:34;;;;;;;87.90;45.13;;;27.80;78.10;;;;;;4177072;28;20064;-69
2021/12/16 11:10:39;;;;;;;83.03;46.92;;;27.80;78.10;;;;;;4170492;28;20045;-72
2021/12/16 11:12:47;;;;;;;59.15;33.63;;;27.80;78.20;;;;;;4175032;28;20052;-70
2021/12/16 11:15:19;;;;;;;57.22;28.27;;;27.80;78.40;;;;;;4164558;28;20046;-71
2021/12/16 11:17:26;;;;;;;59.20;27.58;;;27.80;78.60;;;;;;4160286;28;20523;-71
2021/12/16 11:19:50;;;;;;;60.80;30.05;;;27.70;78.60;;;;;;4163537;28;20125;-71
2021/12/16 11:22:03;;;;;;;74.90;32.47;;;27.70;78.80;;;;;;4177805;28;20033;-70
2021/12/16 11:24:24;;;;;;;79.25;34.13;;;27.70;78.90;;;;;;4173983;28;20033;-71
2021/12/16 11:26:31;;;;;;;79.57;33.45;;;27.70;79.10;;;;;;4164506;28;20045;-71
2021/12/16 11:28:37;;;;;;;71.47;32.03;;;27.70;79.20;;;;;;4156216;28;20042;-70
2021/12/16 11:31:04;;;;;;;66.38;30.90;;;27.60;79.40;;;;;;4157360;28;20064;-71
2021/12/16 11:33:43;;;;;;;72.35;29.90;;;27.60;79.60;;;;;;4175456;28;20052;-70
2021/12/16 11:35:55;;;;;;;63.55;29.27;;;27.60;79.80;;;;;;4159684;28;20049;-70
2021/12/16 11:38:05;;;;;;;61.50;28.42;;;27.60;79.90;;;;;;4174667;28;20060;-70
2021/12/16 11:40:09;;;;;;;61.97;27.80;;;27.50;79.90;;;;;;4175811;28;20061;-71
2021/12/16 11:42:14;;;;;;;60.28;27.92;;;27.50;80.20;;;;;;4175940;28;20063;-70
2021/12/16 11:44:23;;;;;;;68.32;26.85;;;27.50;80.40;;;;;;4175805;28;20423;-70
2021/12/16 11:46:39;;;;;;;59.03;27.05;;;27.50;80.70;;;;;;4159430;28;20046;-70
2021/12/16 11:48:49;;;;;;;69.90;28.75;;;27.40;81.00;;;;;;4159200;28;20470;-71
2021/12/16 11:51:04;;;;;;;61.42;27.60;;;27.20;81.10;;;;;;4158759;28;20041;-71
2021/12/16 11:53:10;;;;;;;60.50;26.45;;;27.10;81.40;;;;;;4158626;28;20466;-71
2021/12/16 11:55:15;;;;;;;52.08;26.00;;;27.10;80.70;;;;;;4158683;28;20049;-71
2021/12/16 11:57:36;;;;;;;66.32;27.27;;;27.10;80.70;;;;;;4158602;28;20049;-72
2021/12/16 11:59:49;;;;;;;57.65;26.33;;;27.10;80.50;;;;;;4169110;28;20045;-70
2021/12/16 12:01:54;;;;;;;70.03;28.40;;;27.20;80.60;;;;;;4175149;28;20053;-71
2021/12/16 12:04:08;;;;;;;56.88;26.60;;;27.10;80.30;;;;;;4172077;28;20056;-72
2021/12/16 12:06:26;;;;;;;60.03;27.73;;;27.10;80.70;;;;;;4157943;28;20519;-71
2021/12/16 12:08:31;;;;;;;59.30;27.23;;;27.10;80.50;;;;;;4174783;28;20045;-71
2021/12/16 12:10:46;;;;;;;54.08;27.25;;;27.20;80.30;;;;;;4176428;28;20041;-71
2021/12/16 12:12:50;;;;;;;52.20;30.17;;;27.20;80.20;;;;;;4174827;28;20045;-71
2021/12/16 12:14:59;;;;;;;56.95;28.30;;;27.20;80.00;;;;;;4174869;28;20037;-71
2021/12/16 12:17:19;;;;;;;57.22;27.23;;;27.20;80.30;;;;;;4123893;28;20053;-72
2021/12/16 12:19:24;;;;;;;43.33;26.08;;;27.20;80.50;;;;;;4175075;28;20135;-72
2021/12/16 12:21:53;;;;;;;55.20;27.13;;;27.10;80.50;;;;;;4174381;28;20499;-72
2021/12/16 12:24:22;;;;;;;52.88;25.60;;;27.10;80.30;;;;;;4175781;28;20133;-68
2021/12/16 12:26:30;;;;;;;48.45;26.08;;;27.10;80.30;;;;;;4173400;28;20080;-72
2021/12/16 12:28:35;;;;;;;63.15;27.38;;;27.10;80.40;;;;;;4172830;28;20053;-72
2021/12/16 12:30:39;;;;;;;56.95;27.33;;;27.10;80.30;;;;;;4175764;28;20049;-71
2021/12/16 12:32:45;;;;;;;53.53;25.30;;;27.00;80.40;;;;;;4170604;28;20538;-72
2021/12/16 12:34:58;;;;;;;51.75;26.33;;;27.00;80.60;;;;;;4173165;28;20554;-72
2021/12/16 12:37:07;;;;;;;47.20;26.20;;;26.90;80.50;;;;;;4175906;28;20049;-71
2021/12/16 12:39:12;;;;;;;57.05;27.23;;;26.90;80.70;;;;;;4172745;28;20530;-72
2021/12/16 12:41:17;;;;;;;52.92;27.83;;;26.90;80.60;;;;;;4158817;28;20061;-70
2021/12/16 12:43:22;;;;;;;48.90;27.05;;;26.90;80.60;;;;;;4158038;28;20072;-70
2021/12/16 12:45:30;;;;;;;55.08;28.45;;;26.90;80.10;;;;;;4152668;28;20127;-71
2021/12/16 12:47:35;;;;;;;47.58;28.45;;;26.90;80.50;;;;;;4162564;28;20345;-70
2021/12/16 12:49:39;;;;;;;50.50;26.98;;;26.90;80.30;;;;;;4171053;28;20044;-71
2021/12/16 12:51:47;;;;;;;53.22;25.98;;;26.90;80.50;;;;;;4167255;28;20040;-70
2021/12/16 12:53:52;;;;;;;49.53;25.70;;;26.90;80.40;;;;;;4170373;28;20068;-70
2021/12/16 12:56:08;;;;;;;52.60;26.55;;;26.90;81.00;;;;;;4155616;28;20045;-70
2021/12/16 12:58:16;;;;;;;50.95;25.73;;;26.90;80.30;;;;;;4157542;28;20043;-70
2021/12/16 13:00:46;;;;;;;46.65;25.13;;;26.90;80.10;;;;;;4170154;28;20433;-70
2021/12/16 13:03:11;;;;;;;40.00;24.40;;;26.90;80.00;;;;;;4168119;28;20502;-70
2021/12/16 13:05:20;;;;;;;44.17;24.48;;;26.80;79.90;;;;;;4172669;28;20466;-70
2021/12/16 13:07:39;;;;;;;47.75;25.48;;;26.70;80.40;;;;;;4177744;28;20044;-70
2021/12/16 13:09:47;;;;;;;49.92;25.65;;;26.70;81.00;;;;;;4179822;28;20537;-70
2021/12/16 13:11:52;;;;;;;52.08;25.10;;;26.70;81.20;;;;;;4154169;28;20045;-70
2021/12/16 13:23:30;;;;;;;59.38;28.15;;;26.40;82.90;;;;;;4182378;28;20082;-70
2021/12/16 13:28:06;;;;;;;53.05;30.13;;;26.30;82.80;;;;;;4179703;28;20570;-70
2021/12/16 13:32:32;;;;;;;54.58;29.08;;;26.30;82.40;;;;;;4181111;28;20044;-71
2021/12/16 13:34:59;;;;;;;59.95;30.85;;;26.30;82.30;;;;;;4145511;28;20447;-70
2021/12/16 13:37:22;;;;;;;49.72;29.60;;;26.20;82.60;;;;;;4173146;28;20450;-69
2021/12/16 13:39:29;;;;;;;47.88;28.92;;;26.20;83.10;;;;;;4174773;28;20690;-71